createdAt,value
2022-08-17T00:03:00.978Z,20.40
2022-08-17T00:06:07.045Z,20.40
2022-08-17T00:09:03.843Z,20.40
2022-08-17T00:12:40.909Z,20.60
2022-08-17T00:15:10.878Z,20.70
2022-08-17T00:18:03.629Z,20.80
2022-08-17T00:21:23.659Z,20.80
2022-08-17T00:24:18.716Z,20.70
2022-08-17T00:27:11.402Z,20.60
2022-08-17T00:30:06.769Z,20.50
2022-08-17T00:33:12.526Z,20.60
2022-08-17T00:36:08.639Z,20.60
2022-08-17T00:39:00.975Z,20.70
2022-08-17T00:41:53.166Z,20.80
2022-08-17T00:44:45.848Z,20.00
2022-08-17T00:47:38.166Z,19.70
2022-08-17T00:50:30.522Z,19.70
2022-08-17T00:53:23.016Z,19.90
2022-08-17T00:56:20.891Z,20.10
2022-08-17T00:59:17.683Z,20.10
2022-08-17T01:02:12.652Z,20.00
2022-08-17T01:05:06.780Z,19.90
2022-08-17T01:08:01.873Z,19.80
2022-08-17T01:10:58.124Z,19.80
2022-08-17T01:13:53.430Z,19.90
2022-08-17T01:16:45.614Z,20.00
2022-08-17T01:19:40.953Z,20.00
2022-08-17T01:22:33.300Z,20.10
2022-08-17T01:25:25.551Z,20.20
2022-08-17T01:28:52.221Z,20.30
2022-08-17T01:31:39.049Z,20.50
2022-08-17T01:34:39.864Z,20.60
2022-08-17T01:37:39.853Z,20.30
2022-08-17T01:40:49.550Z,19.90
2022-08-17T01:43:59.064Z,19.90
2022-08-17T01:46:51.439Z,20.10
2022-08-17T01:49:44.452Z,20.10
2022-08-17T01:52:36.926Z,19.80
2022-08-17T01:56:05.331Z,20.00
2022-08-17T01:58:57.544Z,20.30
2022-08-17T02:01:50.491Z,20.50
2022-08-17T02:04:42.795Z,20.70
2022-08-17T02:07:59.762Z,20.80
2022-08-17T02:10:50.079Z,20.80
2022-08-17T02:13:45.538Z,20.90
2022-08-17T02:16:41.138Z,20.80
2022-08-17T02:19:33.339Z,20.50
2022-08-17T02:22:26.189Z,20.40
2022-08-17T02:25:20.352Z,20.30
2022-08-17T02:28:12.656Z,20.30
2022-08-17T02:31:08.223Z,20.40
2022-08-17T02:34:03.810Z,20.50
2022-08-17T02:36:56.578Z,20.50
2022-08-17T02:39:48.843Z,20.40
2022-08-17T02:42:43.419Z,19.80
2022-08-17T02:45:36.139Z,19.50
2022-08-17T02:48:31.446Z,19.30
2022-08-17T02:51:24.453Z,19.20
2022-08-17T02:54:39.953Z,19.10
2022-08-17T02:57:30.180Z,19.00
2022-08-17T03:00:26.850Z,18.90
2022-08-17T03:03:19.118Z,18.80
2022-08-17T03:06:11.424Z,18.90
2022-08-17T03:09:04.440Z,19.00
2022-08-17T03:12:08.504Z,18.90
2022-08-17T03:15:13.286Z,18.90
2022-08-17T03:18:05.520Z,18.90
2022-08-17T03:21:01.742Z,19.00
2022-08-17T03:23:54.383Z,19.20
2022-08-17T03:26:47.186Z,19.30
2022-08-17T03:29:39.815Z,19.30
2022-08-17T03:32:41.758Z,19.20
2022-08-17T03:35:36.470Z,19.50
2022-08-17T03:38:28.708Z,19.60
2022-08-17T03:41:31.301Z,19.50
2022-08-17T03:44:23.493Z,19.40
2022-08-17T03:47:34.061Z,19.30
2022-08-17T03:50:45.113Z,19.20
2022-08-17T03:54:07.705Z,19.30
2022-08-17T03:57:04.609Z,19.50
2022-08-17T03:59:57.646Z,19.50
2022-08-17T04:02:49.994Z,19.50
2022-08-17T04:05:42.781Z,19.50
2022-08-17T04:08:35.603Z,19.90
2022-08-17T04:11:27.892Z,20.30
2022-08-17T04:14:20.403Z,20.60
2022-08-17T04:17:12.626Z,20.80
2022-08-17T04:20:05.407Z,20.60
2022-08-17T04:23:09.409Z,20.50
2022-08-17T04:26:01.652Z,21.20
2022-08-17T04:28:54.112Z,22.00
2022-08-17T04:31:46.509Z,22.70
2022-08-17T04:34:38.771Z,23.20
2022-08-17T04:37:30.995Z,23.40
2022-08-17T04:40:43.654Z,23.40
2022-08-17T04:43:37.944Z,23.80
2022-08-17T04:46:33.526Z,24.40
2022-08-17T04:49:25.745Z,25.00
2022-08-17T04:52:29.858Z,25.50
2022-08-17T04:55:30.341Z,25.50
2022-08-17T04:58:22.553Z,26.20
2022-08-17T05:01:16.196Z,26.60
2022-08-17T05:04:33.258Z,27.10
2022-08-17T05:07:31.394Z,27.50
2022-08-17T05:10:30.980Z,27.80
2022-08-17T05:13:26.615Z,28.00
2022-08-17T05:16:21.036Z,27.80
2022-08-17T05:19:13.226Z,28.10
2022-08-17T05:22:06.171Z,28.30
2022-08-17T05:24:58.336Z,28.10
2022-08-17T05:27:51.027Z,27.90
2022-08-17T05:30:44.656Z,27.50
2022-08-17T05:33:44.522Z,27.70
2022-08-17T05:36:43.927Z,27.70
2022-08-17T05:39:36.653Z,27.60
2022-08-17T05:42:28.889Z,27.40
2022-08-17T05:45:39.971Z,27.50
2022-08-17T05:48:46.510Z,27.80
2022-08-17T05:52:10.001Z,28.30
2022-08-17T05:55:07.078Z,29.00
2022-08-17T05:58:08.330Z,29.30
2022-08-17T06:01:11.924Z,29.50
2022-08-17T06:04:31.539Z,29.50
2022-08-17T06:07:43.974Z,29.40
2022-08-17T06:10:54.236Z,29.60
2022-08-17T06:14:09.816Z,30.00
2022-08-17T06:17:10.329Z,30.30
2022-08-17T06:20:04.937Z,30.50
2022-08-17T06:23:04.669Z,30.60
2022-08-17T06:26:03.857Z,30.70
2022-08-17T06:29:03.493Z,30.70
2022-08-17T06:32:04.371Z,30.70
2022-08-17T06:34:58.621Z,30.70
2022-08-17T06:37:59.321Z,30.80
2022-08-17T06:41:20.162Z,31.00
2022-08-17T06:44:50.302Z,30.90
2022-08-17T06:48:07.059Z,31.20
2022-08-17T06:51:19.196Z,31.40
2022-08-17T06:54:46.203Z,31.70
2022-08-17T06:57:45.269Z,31.60
2022-08-17T07:00:41.867Z,31.60
2022-08-17T07:03:37.773Z,31.30
2022-08-17T07:06:38.246Z,31.40
2022-08-17T07:09:39.619Z,31.60
2022-08-17T07:12:41.270Z,31.60
2022-08-17T07:15:42.513Z,31.80
2022-08-17T07:18:34.830Z,32.10
2022-08-17T07:21:38.635Z,32.30
2022-08-17T07:24:47.342Z,32.40
2022-08-17T07:28:06.900Z,32.80
2022-08-17T07:31:00.071Z,32.70
2022-08-17T07:34:04.039Z,32.60
2022-08-17T07:37:05.194Z,33.20
2022-08-17T07:40:15.487Z,33.10
2022-08-17T07:43:40.809Z,33.40
2022-08-17T07:46:53.651Z,33.60
2022-08-17T07:49:46.505Z,33.60
2022-08-17T07:52:50.986Z,33.80
2022-08-17T07:55:45.347Z,34.10
2022-08-17T07:58:37.538Z,34.20
2022-08-17T08:01:39.418Z,34.10
2022-08-17T08:08:03.169Z,34.30
2022-08-17T08:11:26.978Z,34.10
2022-08-17T08:14:29.612Z,33.90
2022-08-17T08:17:35.796Z,34.20
2022-08-17T08:20:53.494Z,34.20
2022-08-17T08:23:59.654Z,34.60
2022-08-17T08:27:56.069Z,34.80
2022-08-17T08:30:56.721Z,34.50
2022-08-17T08:34:06.593Z,34.50
2022-08-17T08:37:17.757Z,34.80
2022-08-17T08:40:17.141Z,34.80
2022-08-17T08:43:27.728Z,34.70
2022-08-17T08:46:25.309Z,35.00
2022-08-17T08:53:05.060Z,35.00
2022-08-17T08:56:11.646Z,35.10
2022-08-17T08:59:16.922Z,35.00
2022-08-17T09:02:18.219Z,35.00
2022-08-17T09:05:33.602Z,35.20
2022-08-17T09:08:28.505Z,35.10
2022-08-17T09:11:30.553Z,35.10
2022-08-17T09:14:32.523Z,35.20
2022-08-17T09:18:21.441Z,35.10
2022-08-17T09:21:48.610Z,35.00
2022-08-17T09:24:49.250Z,35.20
2022-08-17T09:27:47.770Z,35.20
2022-08-17T09:30:55.273Z,35.20
2022-08-17T09:33:48.944Z,35.40
2022-08-17T09:36:50.151Z,35.40
2022-08-17T09:39:51.550Z,35.20
2022-08-17T09:43:12.648Z,34.90
2022-08-17T09:46:09.741Z,35.00
2022-08-17T09:49:25.007Z,35.20
2022-08-17T09:52:27.950Z,35.20
2022-08-17T09:55:21.992Z,35.20
2022-08-17T09:58:34.891Z,35.00
2022-08-17T10:01:31.756Z,35.10
2022-08-17T10:04:35.106Z,35.30
2022-08-17T10:07:41.553Z,35.50
2022-08-17T10:11:12.460Z,35.50
2022-08-17T10:14:37.979Z,35.40
2022-08-17T10:18:03.898Z,35.20
2022-08-17T10:21:20.556Z,35.00
2022-08-17T10:24:36.498Z,35.10
2022-08-17T10:27:44.116Z,35.10
2022-08-17T10:30:45.868Z,35.20
2022-08-17T10:33:55.472Z,35.20
2022-08-17T10:37:07.931Z,35.30
2022-08-17T10:40:02.779Z,35.20
2022-08-17T10:43:10.268Z,35.10
2022-08-17T10:46:30.890Z,35.10
2022-08-17T10:49:33.150Z,35.10
2022-08-17T10:52:28.387Z,35.30
2022-08-17T10:55:20.804Z,35.40
2022-08-17T10:58:21.993Z,35.40
2022-08-17T11:01:14.391Z,35.10
2022-08-17T11:04:18.712Z,35.20
2022-08-17T11:07:54.482Z,35.20
2022-08-17T11:11:04.993Z,35.40
2022-08-17T11:14:11.016Z,35.40
2022-08-17T11:17:16.728Z,35.60
2022-08-17T11:20:23.908Z,35.70
2022-08-17T11:23:24.803Z,35.60
2022-08-17T11:26:38.472Z,35.50
2022-08-17T11:29:59.508Z,35.30
2022-08-17T11:32:54.973Z,35.10
2022-08-17T11:35:53.971Z,34.50
2022-08-17T11:39:13.329Z,34.50
2022-08-17T11:42:28.039Z,34.80
2022-08-17T11:45:52.907Z,35.00
2022-08-17T11:49:13.369Z,35.20
2022-08-17T11:52:08.460Z,35.20
2022-08-17T11:55:24.056Z,35.40
2022-08-17T11:58:30.887Z,35.40
2022-08-17T12:01:22.947Z,35.10
2022-08-17T12:04:29.330Z,34.70
2022-08-17T12:07:23.233Z,34.70
2022-08-17T12:10:20.359Z,35.00
2022-08-17T12:13:16.504Z,35.10
2022-08-17T12:16:15.345Z,35.00
2022-08-17T12:19:19.384Z,35.10
2022-08-17T12:22:26.530Z,35.10
2022-08-17T12:25:26.297Z,35.10
2022-08-17T12:28:31.707Z,35.10
2022-08-17T12:31:27.999Z,35.10
2022-08-17T12:34:29.399Z,35.10
2022-08-17T12:37:26.270Z,34.80
2022-08-17T12:40:27.048Z,34.50
2022-08-17T12:43:22.774Z,34.30
2022-08-17T12:46:17.531Z,34.50
2022-08-17T12:49:33.253Z,34.60
2022-08-17T12:52:28.767Z,34.30
2022-08-17T12:55:22.792Z,34.50
2022-08-17T12:58:25.268Z,34.70
2022-08-17T13:01:18.370Z,34.80
2022-08-17T13:04:14.218Z,34.80
2022-08-17T13:07:07.631Z,34.80
2022-08-17T13:09:59.931Z,34.70
2022-08-17T13:12:52.940Z,34.50
2022-08-17T13:15:54.156Z,34.20
2022-08-17T13:18:51.927Z,34.30
2022-08-17T13:21:49.826Z,34.30
2022-08-17T13:24:54.840Z,34.20
2022-08-17T13:27:50.783Z,34.20
2022-08-17T13:30:43.325Z,34.30
2022-08-17T13:33:44.643Z,34.30
2022-08-17T13:36:37.477Z,34.20
2022-08-17T13:39:41.820Z,34.40
2022-08-17T13:42:51.952Z,34.30
2022-08-17T13:45:50.889Z,34.30
2022-08-17T13:48:43.543Z,34.30
2022-08-17T13:51:46.916Z,34.40
2022-08-17T13:54:39.827Z,34.50
2022-08-17T13:57:32.257Z,34.50
2022-08-17T14:00:31.922Z,34.50
2022-08-17T14:03:24.780Z,34.30
2022-08-17T14:06:49.320Z,34.40
2022-08-17T14:09:37.207Z,34.30
2022-08-17T14:12:32.298Z,34.20
2022-08-17T14:15:53.618Z,34.10
2022-08-17T14:18:56.413Z,34.00
2022-08-17T14:21:50.374Z,34.00
2022-08-17T14:24:44.847Z,33.90
2022-08-17T14:27:41.702Z,33.90
2022-08-17T14:30:45.236Z,34.00
2022-08-17T14:33:37.955Z,34.00
2022-08-17T14:36:31.248Z,34.00
2022-08-17T14:39:23.458Z,33.90
2022-08-17T14:42:16.433Z,33.80
2022-08-17T14:45:31.908Z,33.60
2022-08-17T14:48:24.092Z,33.50
2022-08-17T14:51:16.673Z,33.50
2022-08-17T14:54:08.856Z,33.50
2022-08-17T14:57:22.275Z,33.40
2022-08-17T15:00:16.692Z,33.40
2022-08-17T15:03:09.122Z,33.40
2022-08-17T15:06:02.747Z,33.30
2022-08-17T15:08:55.795Z,33.40
2022-08-17T15:11:48.067Z,33.30
2022-08-17T15:14:40.230Z,33.30
2022-08-17T15:17:45.001Z,33.30
2022-08-17T15:20:38.575Z,33.30
2022-08-17T15:23:31.808Z,33.20
2022-08-17T15:26:26.360Z,33.20
2022-08-17T15:29:18.712Z,33.10
2022-08-17T15:32:11.073Z,33.00
2022-08-17T15:35:05.446Z,33.00
2022-08-17T15:38:10.671Z,32.90
2022-08-17T15:41:04.261Z,32.80
2022-08-17T15:43:56.989Z,32.70
2022-08-17T15:46:49.769Z,32.70
2022-08-17T15:49:42.654Z,32.70
2022-08-17T15:52:40.576Z,32.70
2022-08-17T15:55:33.502Z,32.60
2022-08-17T15:58:32.243Z,32.50
2022-08-17T16:02:11.960Z,32.50
2022-08-17T16:04:44.010Z,32.40
2022-08-17T16:07:37.252Z,32.40
2022-08-17T16:10:36.380Z,32.30
2022-08-17T16:13:28.768Z,32.30
2022-08-17T16:16:20.976Z,32.20
2022-08-17T16:19:13.267Z,32.20
2022-08-17T16:22:11.151Z,32.10
2022-08-17T16:25:07.314Z,32.10
2022-08-17T16:28:00.381Z,32.00
2022-08-17T16:30:52.580Z,32.00
2022-08-17T16:33:58.489Z,31.90
2022-08-17T16:36:57.586Z,31.90
2022-08-17T16:39:50.166Z,31.80
2022-08-17T16:42:43.403Z,31.70
2022-08-17T16:45:39.978Z,31.60
2022-08-17T16:48:32.154Z,31.60
2022-08-17T16:51:24.826Z,31.40
2022-08-17T16:54:17.800Z,31.30
2022-08-17T16:57:11.493Z,31.30
2022-08-17T17:00:07.295Z,31.20
2022-08-17T17:03:19.084Z,31.10
2022-08-17T17:06:24.425Z,31.10
2022-08-17T17:09:23.427Z,31.00
2022-08-17T17:12:19.307Z,30.90
2022-08-17T17:15:57.650Z,30.90
2022-08-17T17:19:10.255Z,30.80
2022-08-17T17:22:20.565Z,30.60
2022-08-17T17:25:31.054Z,30.50
2022-08-17T17:28:43.434Z,30.40
2022-08-17T17:32:02.136Z,30.30
2022-08-17T17:35:04.564Z,30.10
2022-08-17T17:37:58.075Z,30.00
2022-08-17T17:40:54.083Z,29.90
2022-08-17T17:44:07.912Z,29.90
2022-08-17T17:47:02.256Z,29.70
2022-08-17T17:49:54.510Z,29.60
2022-08-17T17:52:49.473Z,29.40
2022-08-17T17:56:01.638Z,29.30
2022-08-17T17:59:06.560Z,29.10
2022-08-17T18:02:38.650Z,28.90
2022-08-17T18:05:39.449Z,28.60
2022-08-17T18:08:46.815Z,28.40
2022-08-17T18:12:19.805Z,28.20
2022-08-17T18:15:15.288Z,28.10
2022-08-17T18:18:17.220Z,28.00
2022-08-17T18:21:19.423Z,27.90
2022-08-17T18:24:13.697Z,27.90
2022-08-17T18:27:24.876Z,27.80
2022-08-17T18:30:17.020Z,27.80
2022-08-17T18:33:23.288Z,27.70
2022-08-17T18:36:32.533Z,27.70
2022-08-17T18:39:28.850Z,27.70
2022-08-17T18:42:29.210Z,27.70
2022-08-17T18:45:44.689Z,27.60
2022-08-17T18:48:59.255Z,27.40
2022-08-17T18:52:13.065Z,27.20
2022-08-17T18:55:23.204Z,26.90
2022-08-17T18:58:24.215Z,26.70
2022-08-17T19:01:21.459Z,26.50
2022-08-17T19:04:37.200Z,26.40
2022-08-17T19:07:38.132Z,26.30
2022-08-17T19:10:46.161Z,26.20
2022-08-17T19:13:39.351Z,26.30
2022-08-17T19:16:52.391Z,26.30
2022-08-17T19:20:01.774Z,26.30
2022-08-17T19:23:02.408Z,26.10
2022-08-17T19:25:58.475Z,26.20
2022-08-17T19:28:58.527Z,26.10
2022-08-17T19:31:51.110Z,26.10
2022-08-17T19:34:44.699Z,26.00
2022-08-17T19:38:12.809Z,26.00
2022-08-17T19:41:24.900Z,25.90
2022-08-17T19:44:32.214Z,25.80
2022-08-17T19:48:07.993Z,25.50
2022-08-17T19:51:09.246Z,25.20
2022-08-17T19:54:16.085Z,25.20
2022-08-17T19:57:30.284Z,25.20
2022-08-17T20:00:22.693Z,25.30
2022-08-17T20:03:38.045Z,25.20
2022-08-17T20:06:34.463Z,25.00
2022-08-17T20:09:40.849Z,24.70
2022-08-17T20:12:38.642Z,24.60
2022-08-17T20:15:35.462Z,24.30
2022-08-17T20:18:47.693Z,24.20
2022-08-17T20:21:58.018Z,24.10
2022-08-17T20:24:58.772Z,24.00
2022-08-17T20:28:02.886Z,24.00
2022-08-17T20:30:58.912Z,24.00
2022-08-17T20:33:51.118Z,24.00
2022-08-17T20:36:59.482Z,24.10
2022-08-17T20:39:52.636Z,24.00
2022-08-17T20:42:44.923Z,23.90
2022-08-17T20:45:57.789Z,23.90
2022-08-17T20:48:55.478Z,23.90
2022-08-17T20:52:00.696Z,23.80
2022-08-17T20:54:57.350Z,23.80
2022-08-17T20:57:50.016Z,23.80
2022-08-17T21:00:56.298Z,23.70
2022-08-17T21:03:51.862Z,23.60
2022-08-17T21:07:21.821Z,23.60
2022-08-17T21:10:26.396Z,23.50
2022-08-17T21:13:22.070Z,23.40
2022-08-17T21:16:26.654Z,23.40
2022-08-17T21:19:48.985Z,23.30
2022-08-17T21:23:06.019Z,23.30
2022-08-17T21:26:10.257Z,23.20
2022-08-17T21:29:31.105Z,23.00
2022-08-17T21:32:30.401Z,22.90
2022-08-17T21:35:29.158Z,22.90
2022-08-17T21:38:32.979Z,23.00
2022-08-17T21:41:45.346Z,22.80
2022-08-17T21:44:43.216Z,22.80
2022-08-17T21:47:35.510Z,22.90
2022-08-17T21:50:27.765Z,22.90
2022-08-17T21:53:39.796Z,22.90
2022-08-17T21:56:36.269Z,23.00
2022-08-17T21:59:34.691Z,23.00
2022-08-17T22:02:36.148Z,22.90
2022-08-17T22:05:39.903Z,22.70
2022-08-17T22:08:32.136Z,22.60
2022-08-17T22:11:24.451Z,22.60
2022-08-17T22:14:22.148Z,22.50
2022-08-17T22:17:28.189Z,22.50
2022-08-17T22:20:21.641Z,22.50
2022-08-17T22:23:33.179Z,22.50
2022-08-17T22:26:47.131Z,22.50
2022-08-17T22:29:53.355Z,22.60
2022-08-17T22:32:49.957Z,22.50
2022-08-17T22:35:43.640Z,22.30
2022-08-17T22:38:36.497Z,22.10
2022-08-17T22:41:34.506Z,22.10
2022-08-17T22:44:37.610Z,22.10
2022-08-17T22:47:40.605Z,22.10
2022-08-17T22:50:35.600Z,22.10
2022-08-17T22:53:46.908Z,22.00
2022-08-17T22:57:07.068Z,21.80
2022-08-17T23:00:00.073Z,21.60
2022-08-17T23:03:16.694Z,21.70
2022-08-17T23:06:10.766Z,21.60
2022-08-17T23:09:05.856Z,21.80
2022-08-17T23:11:58.815Z,21.80
2022-08-17T23:14:58.427Z,21.60
2022-08-17T23:17:50.805Z,21.10
2022-08-17T23:20:43.825Z,20.50
2022-08-17T23:23:37.093Z,20.40
2022-08-17T23:26:30.017Z,20.60
2022-08-17T23:29:24.115Z,20.70
2022-08-17T23:32:18.562Z,20.70
2022-08-17T23:35:11.309Z,20.80
2022-08-17T23:38:03.599Z,20.90
2022-08-17T23:40:59.947Z,20.90
2022-08-17T23:43:52.810Z,20.80
2022-08-17T23:46:45.062Z,20.90
2022-08-17T23:49:40.319Z,21.10
2022-08-17T23:52:36.973Z,21.30
2022-08-17T23:55:34.487Z,21.30
2022-08-17T23:58:26.763Z,21.20
